Cairnwell, United Kingdom
Current Conditions -  °F | °C
As of 3:50 PM on Tuesday 21 Oct 2014 (Local Time) from EGPN Reporting Station
Rain Showers Rain Showers  
Wind Chill: 38°   Ceiling: Unl
Heat Index: 46°   Visibility: 6mi
Dew Point: 37°   Wind: 23mph
Humidity: 71%   Direction: 280°W
Pressure: 29.56"   Gusts: 38mph
Location:  56.88°N, 3.42°W
Report Text: EGPN 211450Z 28020G33KT 9999 -SHRA FEW022 SCT040 08/03 Q1001
Loading
Personal Weather Stations






























Interactive Weather Map
Tropical Storm Tracking
New forecast layout! Learn more

10-Day Weather Forecast

Advertisements
Track Severe Weather on mobile